createdAt,value
2023-09-11T00:02:19.859Z,4.40
2023-09-11T00:04:53.009Z,4.45
2023-09-11T00:07:23.207Z,4.97
2023-09-11T00:09:53.406Z,4.35
2023-09-11T00:12:23.726Z,5.03
2023-09-11T00:14:53.993Z,4.70
2023-09-11T00:17:24.376Z,4.57
2023-09-11T00:19:59.214Z,4.32
2023-09-11T00:22:29.456Z,3.83
2023-09-11T00:24:59.621Z,4.80
2023-09-11T00:27:30.144Z,5.18
2023-09-11T00:30:00.692Z,5.18
2023-09-11T00:32:30.972Z,4.30
2023-09-11T00:35:03.872Z,4.57
2023-09-11T00:37:34.069Z,4.72
2023-09-11T00:40:05.384Z,5.53
2023-09-11T00:42:35.580Z,4.65
2023-09-11T00:45:05.892Z,5.18
2023-09-11T00:47:36.605Z,4.63
2023-09-11T00:50:11.502Z,4.63
2023-09-11T00:52:43.329Z,4.80
2023-09-11T00:55:14.004Z,4.30
2023-09-11T00:57:45.545Z,4.63
2023-09-11T01:00:18.137Z,4.20
2023-09-11T01:02:49.492Z,5.90
2023-09-11T01:05:22.745Z,5.18
2023-09-11T01:07:53.245Z,4.50
2023-09-11T01:10:23.689Z,3.72
2023-09-11T01:12:54.316Z,4.75
2023-09-11T01:15:25.053Z,4.32
2023-09-11T01:18:08.380Z,4.07
2023-09-11T01:21:14.018Z,3.90
2023-09-11T01:24:03.253Z,4.25
2023-09-11T01:27:10.407Z,5.03
2023-09-11T01:29:46.098Z,5.00
2023-09-11T01:32:19.083Z,4.97
2023-09-11T01:34:49.305Z,4.60
2023-09-11T01:37:19.506Z,4.70
2023-09-11T01:39:51.074Z,5.00
2023-09-11T01:42:27.593Z,4.53
2023-09-11T01:45:03.045Z,3.53
2023-09-11T01:47:36.442Z,5.30
2023-09-11T01:50:09.135Z,5.03
2023-09-11T01:52:40.405Z,4.45
2023-09-11T01:55:12.526Z,3.90
2023-09-11T01:57:42.836Z,4.30
2023-09-11T02:00:18.498Z,4.28
2023-09-11T02:02:53.130Z,5.05
2023-09-11T02:05:23.417Z,4.22
2023-09-11T02:07:53.787Z,4.57
2023-09-11T02:10:23.960Z,4.65
2023-09-11T02:12:54.153Z,4.80
2023-09-11T02:15:29.623Z,4.57
2023-09-11T02:17:59.960Z,5.30
2023-09-11T02:20:30.256Z,6.20
2023-09-11T02:23:00.464Z,5.97
2023-09-11T02:25:30.695Z,6.43
2023-09-11T02:28:01.233Z,5.55
2023-09-11T02:30:34.619Z,4.35
2023-09-11T02:35:35.417Z,4.25
2023-09-11T02:38:05.647Z,5.95
2023-09-11T02:40:35.914Z,5.53
2023-09-11T02:43:07.834Z,5.45
2023-09-11T02:45:40.860Z,5.15
2023-09-11T02:48:11.223Z,5.68
2023-09-11T02:50:44.073Z,5.25
2023-09-11T02:53:19.125Z,4.47
2023-09-11T02:55:49.465Z,4.55
2023-09-11T02:58:19.885Z,5.07
2023-09-11T03:00:53.351Z,5.00
2023-09-11T03:03:26.510Z,5.43
2023-09-11T03:06:01.565Z,6.28
2023-09-11T03:08:32.633Z,5.68
2023-09-11T03:11:11.525Z,5.15
2023-09-11T03:13:43.583Z,5.78
2023-09-11T03:16:18.777Z,4.93
2023-09-11T03:18:56.660Z,4.45
2023-09-11T03:21:28.322Z,5.07
2023-09-11T03:23:58.642Z,4.68
2023-09-11T03:26:28.959Z,5.70
2023-09-11T03:29:00.175Z,4.72
2023-09-11T03:31:37.684Z,4.22
2023-09-11T03:34:08.272Z,5.80
2023-09-11T03:36:38.674Z,4.95
2023-09-11T03:39:09.367Z,4.53
2023-09-11T03:41:40.261Z,5.00
2023-09-11T03:44:10.637Z,4.80
2023-09-11T03:46:43.513Z,5.07
2023-09-11T03:49:13.807Z,5.15
2023-09-11T03:51:44.107Z,4.10
2023-09-11T03:54:15.055Z,4.32
2023-09-11T03:56:45.497Z,4.65
2023-09-11T03:59:15.799Z,4.78
2023-09-11T04:01:48.896Z,4.53
2023-09-11T04:04:19.215Z,5.15
2023-09-11T04:06:49.527Z,4.00
2023-09-11T04:09:19.753Z,5.30
2023-09-11T04:11:50.844Z,4.55
2023-09-11T04:14:21.183Z,5.13
2023-09-11T04:16:54.051Z,4.45
2023-09-11T04:19:24.336Z,4.85
2023-09-11T04:21:54.569Z,4.68
2023-09-11T04:24:24.820Z,4.80
2023-09-11T04:26:55.226Z,5.28
2023-09-11T04:29:25.592Z,4.43
2023-09-11T04:31:58.557Z,4.63
2023-09-11T04:34:28.892Z,4.68
2023-09-11T04:36:59.283Z,4.45
2023-09-11T04:39:29.636Z,4.85
2023-09-11T04:42:00.578Z,4.78
2023-09-11T04:44:30.962Z,5.63
2023-09-11T04:47:04.271Z,5.43
2023-09-11T04:52:04.899Z,6.47
2023-09-11T04:54:35.149Z,5.93
2023-09-11T04:57:05.476Z,5.80
2023-09-11T04:59:37.111Z,5.85
2023-09-11T05:02:14.454Z,7.97
2023-09-11T05:04:47.187Z,8.02
2023-09-11T05:07:17.673Z,6.90
2023-09-11T05:09:48.028Z,6.50
2023-09-11T05:12:18.425Z,5.82
2023-09-11T05:14:48.737Z,8.90
2023-09-11T05:17:22.360Z,6.70
2023-09-11T05:19:52.968Z,6.95
2023-09-11T05:22:23.175Z,6.85
2023-09-11T05:24:55.228Z,8.43
2023-09-11T05:27:26.013Z,8.77
2023-09-11T05:29:56.366Z,8.80
2023-09-11T05:32:29.544Z,8.80
2023-09-11T05:35:02.791Z,9.82
2023-09-11T05:37:33.007Z,8.60
2023-09-11T05:40:08.446Z,9.27
2023-09-11T05:42:38.630Z,9.07
2023-09-11T05:45:10.633Z,8.98
2023-09-11T05:47:43.638Z,9.98
2023-09-11T05:50:16.026Z,8.57
2023-09-11T05:52:46.224Z,9.00
2023-09-11T05:55:16.507Z,9.10
2023-09-11T05:57:46.705Z,9.75
2023-09-11T06:00:18.243Z,9.55
2023-09-11T06:02:51.089Z,8.30
2023-09-11T06:05:21.398Z,8.60
2023-09-11T06:07:51.588Z,7.88
2023-09-11T06:10:21.830Z,8.02
2023-09-11T06:12:52.079Z,7.07
2023-09-11T06:15:22.624Z,8.13
2023-09-11T06:17:56.060Z,6.75
2023-09-11T06:22:57.228Z,7.00
2023-09-11T06:25:27.505Z,6.40
2023-09-11T06:27:58.468Z,7.20
2023-09-11T06:30:29.154Z,6.45
2023-09-11T06:33:02.231Z,6.05
2023-09-11T06:35:32.555Z,6.43
2023-09-11T06:38:03.059Z,6.93
2023-09-11T06:40:33.351Z,7.88
2023-09-11T06:43:03.651Z,8.15
2023-09-11T06:45:35.903Z,5.85
2023-09-11T06:48:09.708Z,6.78
2023-09-11T06:50:41.311Z,6.00
2023-09-11T06:53:12.061Z,7.68
2023-09-11T06:55:47.705Z,6.50
2023-09-11T06:58:18.822Z,5.70
2023-09-11T07:00:49.682Z,6.97
2023-09-11T07:03:22.779Z,7.40
2023-09-11T07:05:53.123Z,7.93
2023-09-11T07:08:23.344Z,7.43
2023-09-11T07:10:54.101Z,8.13
2023-09-11T07:13:24.282Z,7.38
2023-09-11T07:16:01.719Z,7.55
2023-09-11T07:18:35.633Z,6.75
2023-09-11T07:21:05.964Z,7.38
2023-09-11T07:23:36.396Z,6.82
2023-09-11T07:26:06.646Z,6.28
2023-09-11T07:28:37.178Z,5.55
2023-09-11T07:31:08.234Z,6.55
2023-09-11T07:33:41.446Z,6.78
2023-09-11T07:38:45.975Z,6.22
2023-09-11T07:41:18.029Z,5.75
2023-09-11T07:43:52.745Z,5.22
2023-09-11T07:46:25.623Z,6.10
2023-09-11T07:49:00.254Z,5.72
2023-09-11T07:51:30.743Z,6.05
2023-09-11T07:54:01.550Z,5.78
2023-09-11T07:56:31.884Z,5.55
2023-09-11T07:59:02.742Z,5.53
2023-09-11T08:01:33.005Z,5.18
2023-09-11T08:04:06.041Z,5.65
2023-09-11T08:09:07.432Z,5.55
2023-09-11T08:11:41.195Z,4.65
2023-09-11T08:14:11.749Z,5.15
2023-09-11T08:16:42.032Z,4.72
2023-09-11T08:19:15.143Z,5.30
2023-09-11T08:24:15.427Z,3.97
2023-09-11T08:26:45.701Z,4.97
2023-09-11T08:29:16.531Z,5.20
2023-09-11T08:31:46.686Z,4.72
2023-09-11T08:34:19.494Z,4.07
2023-09-11T08:36:49.720Z,4.57
2023-09-11T08:39:20.004Z,5.25
2023-09-11T08:41:53.340Z,4.40
2023-09-11T08:44:23.556Z,4.50
2023-09-11T08:46:55.998Z,4.63
2023-09-11T08:49:32.517Z,4.90
2023-09-11T08:52:06.463Z,4.78
2023-09-11T08:54:46.977Z,5.60
2023-09-11T08:57:22.573Z,4.97
2023-09-11T08:59:57.020Z,5.57
2023-09-11T09:02:29.264Z,4.72
2023-09-11T09:05:05.906Z,5.70
2023-09-11T09:07:37.016Z,3.70
2023-09-11T09:10:09.366Z,4.07
2023-09-11T09:12:39.718Z,4.85
2023-09-11T09:15:11.956Z,4.25
2023-09-11T09:17:42.882Z,4.28
2023-09-11T09:20:18.963Z,4.00
2023-09-11T09:23:00.015Z,4.70
2023-09-11T09:25:31.300Z,4.35
2023-09-11T09:28:02.847Z,4.57
2023-09-11T09:30:34.850Z,3.78
2023-09-11T09:33:06.952Z,3.87
2023-09-11T09:35:40.617Z,2.90
2023-09-11T09:38:11.445Z,3.35
2023-09-11T09:40:43.853Z,3.15
2023-09-11T09:43:20.082Z,2.80
2023-09-11T09:45:50.731Z,3.10
2023-09-11T09:48:22.975Z,2.70
2023-09-11T09:51:01.409Z,2.78
2023-09-11T09:53:34.127Z,2.38
2023-09-11T09:56:09.270Z,2.63
2023-09-11T09:58:41.704Z,3.58
2023-09-11T10:01:14.142Z,2.80
2023-09-11T10:03:47.840Z,3.13
2023-09-11T10:06:23.261Z,2.97
2023-09-11T10:09:09.439Z,2.80
2023-09-11T10:11:42.051Z,3.42
2023-09-11T10:14:18.303Z,3.78
2023-09-11T10:16:50.496Z,2.42
2023-09-11T10:19:22.059Z,2.95
2023-09-11T10:21:56.289Z,2.40
2023-09-11T10:24:26.522Z,2.90
2023-09-11T10:27:01.532Z,3.00
2023-09-11T10:29:45.295Z,2.83
2023-09-11T10:32:22.844Z,2.80
2023-09-11T10:34:55.637Z,2.63
2023-09-11T10:40:00.150Z,3.20
2023-09-11T10:42:30.790Z,3.42
2023-09-11T10:45:01.036Z,3.08
2023-09-11T10:47:31.702Z,3.28
2023-09-11T10:50:02.607Z,3.08
2023-09-11T10:52:35.469Z,3.03
2023-09-11T10:55:06.569Z,2.90
2023-09-11T10:57:36.913Z,3.45
2023-09-11T11:00:09.265Z,3.35
2023-09-11T11:02:39.822Z,3.65
2023-09-11T11:05:17.032Z,2.65
2023-09-11T11:07:52.403Z,2.67
2023-09-11T11:10:25.164Z,3.10
2023-09-11T11:15:39.143Z,3.30
2023-09-11T11:18:11.236Z,2.20
2023-09-11T11:21:04.644Z,2.47
2023-09-11T11:23:55.851Z,2.67
2023-09-11T11:26:27.803Z,2.40
2023-09-11T11:28:58.132Z,4.20
2023-09-11T11:31:31.797Z,3.42
2023-09-11T11:34:03.204Z,2.95
2023-09-11T11:36:33.971Z,3.17
2023-09-11T11:39:07.633Z,2.78
2023-09-11T11:41:41.287Z,2.72
2023-09-11T11:44:11.814Z,3.28
2023-09-11T11:46:43.784Z,2.33
2023-09-11T11:49:14.309Z,3.30
2023-09-11T11:51:45.707Z,3.22
2023-09-11T11:54:27.939Z,2.47
2023-09-11T11:56:59.255Z,3.80
2023-09-11T11:59:34.849Z,2.22
2023-09-11T12:02:05.367Z,2.63
2023-09-11T12:04:47.151Z,2.85
2023-09-11T12:07:18.189Z,2.72
2023-09-11T12:09:51.163Z,2.08
2023-09-11T12:12:21.508Z,2.50
2023-09-11T12:14:56.619Z,2.55
2023-09-11T12:17:26.933Z,2.60
2023-09-11T12:20:15.567Z,2.55
2023-09-11T12:22:47.204Z,2.35
2023-09-11T12:25:22.212Z,2.40
2023-09-11T12:27:52.660Z,2.80
2023-09-11T12:30:23.244Z,2.88
2023-09-11T12:32:53.655Z,2.58
2023-09-11T12:35:35.437Z,3.38
2023-09-11T12:38:06.223Z,2.75
2023-09-11T12:40:39.116Z,2.22
2023-09-11T12:43:09.986Z,3.28
2023-09-11T12:45:43.444Z,2.70
2023-09-11T12:48:16.337Z,2.80
2023-09-11T12:50:48.388Z,2.47
2023-09-11T12:53:18.681Z,2.03
2023-09-11T12:55:52.171Z,2.25
2023-09-11T12:58:22.352Z,3.22
2023-09-11T13:00:52.810Z,3.10
2023-09-11T13:03:25.221Z,2.35
2023-09-11T13:05:56.002Z,2.33
2023-09-11T13:08:29.480Z,2.45
2023-09-11T13:11:02.334Z,2.40
2023-09-11T13:13:43.798Z,2.72
2023-09-11T13:16:14.204Z,3.03
2023-09-11T13:18:45.608Z,2.92
2023-09-11T13:21:15.878Z,2.50
2023-09-11T13:23:47.004Z,2.50
2023-09-11T13:26:22.267Z,2.40
2023-09-11T13:28:52.455Z,2.85
2023-09-11T13:31:23.113Z,3.85
2023-09-11T13:33:54.367Z,2.80
2023-09-11T13:36:25.757Z,3.80
2023-09-11T13:38:56.156Z,2.85
2023-09-11T13:41:28.983Z,2.40
2023-09-11T13:43:59.199Z,2.78
2023-09-11T13:46:29.519Z,2.97
2023-09-11T13:48:59.770Z,2.47
2023-09-11T13:51:30.432Z,3.20
2023-09-11T13:54:00.668Z,2.60
2023-09-11T13:56:33.528Z,2.92
2023-09-11T14:01:34.745Z,2.75
2023-09-11T14:04:05.148Z,2.92
2023-09-11T14:06:35.625Z,2.55
2023-09-11T14:09:07.175Z,2.83
2023-09-11T14:11:40.099Z,3.08
2023-09-11T14:14:10.317Z,2.78
2023-09-11T14:16:40.564Z,2.47
2023-09-11T14:19:11.210Z,3.50
2023-09-11T14:21:41.418Z,2.40
2023-09-11T14:24:11.629Z,3.25
2023-09-11T14:26:44.411Z,3.20
2023-09-11T14:31:44.673Z,2.80
2023-09-11T14:34:14.879Z,2.22
2023-09-11T14:36:45.104Z,2.47
2023-09-11T14:39:16.741Z,2.95
2023-09-11T14:41:49.599Z,2.45
2023-09-11T14:46:50.321Z,3.30
2023-09-11T14:49:20.600Z,2.45
2023-09-11T14:51:50.797Z,2.63
2023-09-11T14:54:21.153Z,2.25
2023-09-11T14:56:56.816Z,3.15
2023-09-11T14:59:33.135Z,2.63
2023-09-11T15:02:03.960Z,2.75
2023-09-11T15:04:48.466Z,3.28
2023-09-11T15:07:21.310Z,3.13
2023-09-11T15:09:52.147Z,3.28
2023-09-11T15:12:25.054Z,2.63
2023-09-11T15:14:55.304Z,2.60
2023-09-11T15:17:25.578Z,2.78
2023-09-11T15:19:55.829Z,2.58
2023-09-11T15:22:26.044Z,2.72
2023-09-11T15:24:56.257Z,2.17
2023-09-11T15:27:29.128Z,2.53
2023-09-11T15:29:59.355Z,3.17
2023-09-11T15:32:30.492Z,3.40
2023-09-11T15:35:00.853Z,2.80
2023-09-11T15:37:33.966Z,3.63
2023-09-11T15:40:04.289Z,2.90
2023-09-11T15:42:37.069Z,3.60
2023-09-11T15:47:37.855Z,2.97
2023-09-11T15:50:09.023Z,3.22
2023-09-11T15:52:39.684Z,2.58
2023-09-11T15:55:12.792Z,3.53
2023-09-11T15:57:45.655Z,3.25
2023-09-11T16:02:47.428Z,3.50
2023-09-11T16:05:19.554Z,2.92
2023-09-11T16:07:49.908Z,2.97
2023-09-11T16:10:20.210Z,3.20
2023-09-11T16:12:53.007Z,3.00
2023-09-11T16:15:25.511Z,2.80
2023-09-11T16:17:55.964Z,3.13
2023-09-11T16:20:28.161Z,2.58
2023-09-11T16:22:58.697Z,3.10
2023-09-11T16:25:29.012Z,3.58
2023-09-11T16:28:03.245Z,2.45
2023-09-11T16:30:33.867Z,3.78
2023-09-11T16:33:05.044Z,3.03
2023-09-11T16:35:36.721Z,2.45
2023-09-11T16:38:07.745Z,2.72
2023-09-11T16:40:37.983Z,3.20
2023-09-11T16:43:13.763Z,2.83
2023-09-11T16:45:44.147Z,3.72
2023-09-11T16:48:14.498Z,3.70
2023-09-11T16:50:44.764Z,3.42
2023-09-11T16:53:15.009Z,2.80
2023-09-11T16:55:46.361Z,3.03
2023-09-11T16:58:19.232Z,3.30
2023-09-11T17:00:49.830Z,2.92
2023-09-11T17:03:20.155Z,3.72
2023-09-11T17:05:50.502Z,3.08
2023-09-11T17:08:24.846Z,2.65
2023-09-11T17:10:55.138Z,4.00
2023-09-11T17:13:27.990Z,2.88
2023-09-11T17:16:00.234Z,3.08
2023-09-11T17:18:30.842Z,4.60
2023-09-11T17:21:01.787Z,4.25
2023-09-11T17:23:32.111Z,3.88
2023-09-11T17:26:02.860Z,4.07
2023-09-11T17:28:37.168Z,3.85
2023-09-11T17:31:07.677Z,3.25
2023-09-11T17:33:38.219Z,3.20
2023-09-11T17:36:08.958Z,3.90
2023-09-11T17:38:39.537Z,4.05
2023-09-11T17:41:12.621Z,3.22
2023-09-11T17:43:45.591Z,4.22
2023-09-11T17:46:17.160Z,3.47
2023-09-11T17:48:47.671Z,3.80
2023-09-11T17:51:18.546Z,3.50
2023-09-11T17:53:49.435Z,3.53
2023-09-11T17:56:19.922Z,3.47
2023-09-11T17:58:54.196Z,3.20
2023-09-11T18:01:24.494Z,3.05
2023-09-11T18:04:02.286Z,3.58
2023-09-11T18:06:32.791Z,3.95
2023-09-11T18:09:08.857Z,3.25
2023-09-11T18:11:45.024Z,3.65
2023-09-11T18:14:23.869Z,3.70
2023-09-11T18:16:54.803Z,3.20
2023-09-11T18:19:26.134Z,2.90
2023-09-11T18:21:57.858Z,3.10
2023-09-11T18:24:28.256Z,4.05
2023-09-11T18:27:00.965Z,4.35
2023-09-11T18:29:36.024Z,3.08
2023-09-11T18:32:07.238Z,3.53
2023-09-11T18:34:37.695Z,4.00
2023-09-11T18:37:08.031Z,3.40
2023-09-11T18:39:38.383Z,3.63
2023-09-11T18:42:11.614Z,3.53
2023-09-11T18:44:44.853Z,3.15
2023-09-11T18:47:18.149Z,3.13
2023-09-11T18:52:18.241Z,3.28
2023-09-11T18:54:49.411Z,3.30
2023-09-11T18:57:19.734Z,3.45
2023-09-11T18:59:54.284Z,4.28
2023-09-11T19:02:26.736Z,4.07
2023-09-11T19:04:56.858Z,3.47
2023-09-11T19:07:27.211Z,4.50
2023-09-11T19:09:57.461Z,3.53
2023-09-11T19:12:27.708Z,3.65
2023-09-11T19:15:00.626Z,3.75
2023-09-11T19:17:33.102Z,3.92
2023-09-11T19:20:04.314Z,3.33
2023-09-11T19:22:34.504Z,3.83
2023-09-11T19:25:05.420Z,3.47
2023-09-11T19:27:37.938Z,3.55
2023-09-11T19:30:13.316Z,3.03
2023-09-11T19:32:43.871Z,3.60
2023-09-11T19:35:14.515Z,3.20
2023-09-11T19:37:48.337Z,4.13
2023-09-11T19:40:21.993Z,3.53
2023-09-11T19:42:52.183Z,2.78
2023-09-11T19:47:58.166Z,3.55
2023-09-11T19:50:28.459Z,3.55
2023-09-11T19:52:58.763Z,3.75
2023-09-11T19:55:29.031Z,3.42
2023-09-11T19:58:00.036Z,3.42
2023-09-11T20:00:36.353Z,3.90
2023-09-11T20:05:36.999Z,3.97
2023-09-11T20:08:08.162Z,3.45
2023-09-11T20:10:38.425Z,3.78
2023-09-11T20:13:09.505Z,3.13
2023-09-11T20:15:42.567Z,3.35
2023-09-11T20:18:14.355Z,3.58
2023-09-11T20:20:45.642Z,3.70
2023-09-11T20:23:17.005Z,3.55
2023-09-11T20:25:47.224Z,3.13
2023-09-11T20:28:17.424Z,3.50
2023-09-11T20:30:50.448Z,3.60
2023-09-11T20:33:20.899Z,3.63
2023-09-11T20:35:51.352Z,3.35
2023-09-11T20:38:22.944Z,3.88
2023-09-11T20:40:53.107Z,3.08
2023-09-11T20:43:23.294Z,2.83
2023-09-11T20:45:56.245Z,3.72
2023-09-11T20:48:26.620Z,3.60
2023-09-11T20:50:58.219Z,3.33
2023-09-11T20:53:28.433Z,3.55
2023-09-11T20:55:58.784Z,3.03
2023-09-11T20:58:29.429Z,4.30
2023-09-11T21:01:06.808Z,4.47
2023-09-11T21:03:37.500Z,3.20
2023-09-11T21:06:11.583Z,3.60
2023-09-11T21:08:43.178Z,4.35
2023-09-11T21:11:13.691Z,3.53
2023-09-11T21:13:43.948Z,3.45
2023-09-11T21:16:16.807Z,3.10
2023-09-11T21:18:47.176Z,2.95
2023-09-11T21:21:17.565Z,3.53
2023-09-11T21:23:47.905Z,2.90
2023-09-11T21:26:18.184Z,3.50
2023-09-11T21:28:48.338Z,3.45
2023-09-11T21:31:21.172Z,3.97
2023-09-11T21:33:51.439Z,3.60
2023-09-11T21:36:22.021Z,3.53
2023-09-11T21:38:52.858Z,3.30
2023-09-11T21:41:23.169Z,3.97
2023-09-11T21:43:53.427Z,3.92
2023-09-11T21:46:26.356Z,5.07
2023-09-11T21:48:56.657Z,4.55
2023-09-11T21:51:26.917Z,3.92
2023-09-11T21:54:11.789Z,3.33
2023-09-11T21:56:44.999Z,3.67
2023-09-11T21:59:15.242Z,3.60
2023-09-11T22:01:48.140Z,3.38
2023-09-11T22:04:18.412Z,3.42
2023-09-11T22:06:48.670Z,4.07
2023-09-11T22:09:19.004Z,4.32
2023-09-11T22:11:49.176Z,4.47
2023-09-11T22:14:20.218Z,3.53
2023-09-11T22:16:53.008Z,3.90
2023-09-11T22:19:23.162Z,3.95
2023-09-11T22:21:53.356Z,3.38
2023-09-11T22:24:23.581Z,3.63
2023-09-11T22:26:56.250Z,3.70
2023-09-11T22:29:27.676Z,3.55
2023-09-11T22:32:00.630Z,3.13
2023-09-11T22:34:31.096Z,3.15
2023-09-11T22:37:03.181Z,3.78
2023-09-11T22:39:34.773Z,3.65
2023-09-11T22:42:05.258Z,3.53
2023-09-11T22:44:36.219Z,3.85
2023-09-11T22:47:09.113Z,3.65
2023-09-11T22:49:39.309Z,3.70
2023-09-11T22:52:10.873Z,3.70
2023-09-11T22:54:41.064Z,3.72
2023-09-11T22:57:11.966Z,3.63
2023-09-11T22:59:42.159Z,3.42
2023-09-11T23:02:17.219Z,4.50
2023-09-11T23:04:47.479Z,4.72
2023-09-11T23:07:17.829Z,3.40
2023-09-11T23:09:52.791Z,4.15
2023-09-11T23:12:23.092Z,4.35
2023-09-11T23:14:53.522Z,4.55
2023-09-11T23:17:26.467Z,4.88
2023-09-11T23:19:56.691Z,3.88
2023-09-11T23:22:27.519Z,3.40
2023-09-11T23:24:57.753Z,4.45
2023-09-11T23:27:28.048Z,4.45
2023-09-11T23:29:58.532Z,3.47
2023-09-11T23:32:31.497Z,4.30
2023-09-11T23:35:01.771Z,4.57
2023-09-11T23:37:34.188Z,4.55
2023-09-11T23:40:05.356Z,4.05
2023-09-11T23:42:36.063Z,4.28
2023-09-11T23:45:06.995Z,4.55
2023-09-11T23:47:40.014Z,4.05
2023-09-11T23:50:12.893Z,4.22
2023-09-11T23:52:43.094Z,3.97
2023-09-11T23:55:13.908Z,3.95
2023-09-11T23:57:44.142Z,4.25
